createdAt,value
2023-03-15T00:01:21.297Z,35.68
2023-03-15T00:03:48.346Z,35.92
2023-03-15T00:06:15.331Z,35.58
2023-03-15T00:10:59.713Z,35.45
2023-03-15T00:13:26.565Z,35.73
2023-03-15T00:15:58.517Z,35.45
2023-03-15T00:18:27.342Z,35.83
2023-03-15T00:20:53.951Z,35.85
2023-03-15T00:23:20.703Z,35.86
2023-03-15T00:25:48.472Z,35.93
2023-03-15T00:28:15.434Z,35.98
2023-03-15T00:30:42.398Z,35.92
2023-03-15T00:33:13.781Z,36.02
2023-03-15T00:35:45.347Z,36.18
2023-03-15T00:38:13.830Z,36.24
2023-03-15T00:40:42.064Z,36.31
2023-03-15T00:43:08.632Z,36.07
2023-03-15T00:45:35.214Z,36.17
2023-03-15T00:48:01.770Z,36.04
2023-03-15T00:50:28.925Z,36.16
2023-03-15T00:52:55.573Z,36.11
2023-03-15T00:55:22.243Z,35.90
2023-03-15T00:57:49.480Z,36.11
2023-03-15T01:00:20.546Z,36.25
2023-03-15T01:02:47.670Z,36.00
2023-03-15T01:05:14.257Z,35.96
2023-03-15T01:07:41.124Z,35.92
2023-03-15T01:10:08.287Z,36.01
2023-03-15T01:12:35.140Z,35.55
2023-03-15T01:15:06.734Z,35.52
2023-03-15T01:17:33.548Z,35.43
2023-03-15T01:20:02.361Z,35.39
2023-03-15T01:22:28.939Z,35.41
2023-03-15T01:24:55.600Z,35.18
2023-03-15T01:27:22.281Z,35.05
2023-03-15T01:32:15.843Z,35.04
2023-03-15T01:34:43.477Z,35.11
2023-03-15T01:37:14.582Z,34.56
2023-03-15T01:39:43.799Z,34.51
2023-03-15T01:42:11.154Z,34.54
2023-03-15T01:44:53.845Z,34.67
2023-03-15T01:47:20.668Z,34.50
2023-03-15T01:49:53.041Z,34.81
2023-03-15T01:52:25.847Z,34.43
2023-03-15T01:55:12.842Z,34.69
2023-03-15T01:57:56.017Z,34.71
2023-03-15T02:00:24.991Z,34.55
2023-03-15T02:03:02.030Z,34.54
2023-03-15T02:05:35.533Z,34.30
2023-03-15T02:08:07.569Z,34.48
2023-03-15T02:10:49.468Z,34.96
2023-03-15T02:13:22.803Z,34.71
2023-03-15T02:15:50.397Z,35.16
2023-03-15T02:18:24.519Z,35.19
2023-03-15T02:21:25.125Z,35.15
2023-03-15T02:24:03.139Z,34.99
2023-03-15T02:26:39.589Z,35.18
2023-03-15T02:29:06.411Z,35.04
2023-03-15T02:31:38.176Z,35.08
2023-03-15T02:34:07.678Z,34.88
2023-03-15T02:36:36.023Z,34.64
2023-03-15T02:39:17.239Z,35.10
2023-03-15T02:41:57.778Z,34.81
2023-03-15T02:44:33.684Z,35.23
2023-03-15T02:47:05.969Z,35.00
2023-03-15T02:49:35.565Z,35.43
2023-03-15T02:52:02.173Z,35.47
2023-03-15T02:54:28.802Z,35.65
2023-03-15T02:56:55.331Z,35.63
2023-03-15T02:59:21.931Z,35.65
2023-03-15T03:01:51.464Z,35.71
2023-03-15T03:04:18.266Z,35.84
2023-03-15T03:06:44.834Z,36.75
2023-03-15T03:09:16.755Z,37.19
2023-03-15T03:11:43.777Z,37.64
2023-03-15T03:14:14.055Z,37.84
2023-03-15T03:16:42.723Z,38.09
2023-03-15T03:19:15.318Z,38.17
2023-03-15T03:21:44.262Z,38.36
2023-03-15T03:24:16.212Z,38.39
2023-03-15T03:26:46.026Z,38.77
2023-03-15T03:29:16.459Z,38.69
2023-03-15T03:31:44.586Z,38.87
2023-03-15T03:34:14.543Z,39.30
2023-03-15T03:36:43.172Z,39.65
2023-03-15T03:39:10.658Z,39.55
2023-03-15T03:41:37.650Z,39.54
2023-03-15T03:44:05.242Z,39.04
2023-03-15T03:46:32.161Z,38.99
2023-03-15T03:48:59.074Z,38.86
2023-03-15T03:51:25.757Z,38.97
2023-03-15T03:53:52.423Z,39.00
2023-03-15T03:56:18.948Z,38.78
2023-03-15T03:58:46.088Z,38.98
2023-03-15T04:01:22.113Z,39.05
2023-03-15T04:03:51.370Z,39.08
2023-03-15T04:06:22.499Z,39.51
2023-03-15T04:08:49.285Z,39.26
2023-03-15T04:11:26.932Z,39.45
2023-03-15T04:14:00.509Z,39.02
2023-03-15T04:16:27.813Z,39.35
2023-03-15T04:18:59.766Z,39.50
2023-03-15T04:21:32.001Z,39.42
2023-03-15T04:24:09.061Z,39.45
2023-03-15T04:26:57.808Z,39.28
2023-03-15T04:30:05.772Z,39.49
2023-03-15T04:32:44.338Z,40.21
2023-03-15T04:35:35.335Z,40.18
2023-03-15T04:38:28.498Z,40.48
2023-03-15T04:41:10.822Z,40.49
2023-03-15T04:43:47.304Z,40.73
2023-03-15T04:46:33.848Z,40.86
2023-03-15T04:49:10.054Z,41.15
2023-03-15T04:51:59.250Z,41.39
2023-03-15T04:54:39.325Z,41.40
2023-03-15T04:57:30.112Z,41.40
2023-03-15T05:00:32.275Z,41.49
2023-03-15T05:03:08.526Z,41.56
2023-03-15T05:05:54.984Z,41.38
2023-03-15T05:08:41.570Z,41.27
2023-03-15T05:11:18.902Z,41.17
2023-03-15T05:13:53.479Z,40.44
2023-03-15T05:16:38.674Z,40.61
2023-03-15T05:19:21.742Z,40.53
2023-03-15T05:22:25.766Z,40.46
2023-03-15T05:25:11.365Z,40.27
2023-03-15T05:27:53.005Z,40.39
2023-03-15T05:30:34.746Z,40.40
2023-03-15T05:33:21.940Z,40.67
2023-03-15T05:38:31.976Z,40.41
2023-03-15T05:41:24.725Z,40.47
2023-03-15T05:44:20.544Z,40.97
2023-03-15T05:47:17.515Z,41.33
2023-03-15T05:50:03.615Z,41.73
2023-03-15T05:52:53.472Z,41.39
2023-03-15T05:55:38.877Z,41.51
2023-03-15T05:58:37.956Z,41.93
2023-03-15T06:01:07.489Z,41.86
2023-03-15T06:03:52.329Z,41.91
2023-03-15T06:06:24.244Z,41.74
2023-03-15T06:08:50.820Z,41.46
2023-03-15T06:11:17.947Z,41.51
2023-03-15T06:13:45.270Z,41.35
2023-03-15T06:16:19.125Z,41.23
2023-03-15T06:18:48.506Z,40.83
2023-03-15T06:23:45.778Z,41.04
2023-03-15T06:26:14.569Z,40.72
2023-03-15T06:28:41.696Z,40.26
2023-03-15T06:31:11.317Z,40.17
2023-03-15T06:33:47.509Z,39.96
2023-03-15T06:36:15.318Z,40.14
2023-03-15T06:38:42.680Z,40.01
2023-03-15T06:41:15.278Z,40.21
2023-03-15T06:43:42.841Z,39.94
2023-03-15T06:46:10.577Z,39.96
2023-03-15T06:48:37.465Z,39.42
2023-03-15T06:51:07.130Z,39.44
2023-03-15T06:53:34.647Z,39.10
2023-03-15T06:56:01.325Z,38.81
2023-03-15T06:58:27.922Z,38.84
2023-03-15T07:00:54.496Z,38.80
2023-03-15T07:03:22.442Z,38.45
2023-03-15T07:05:52.594Z,38.50
2023-03-15T07:08:19.985Z,38.32
2023-03-15T07:10:50.407Z,38.42
2023-03-15T07:13:19.078Z,38.24
2023-03-15T07:15:47.646Z,37.98
2023-03-15T07:18:14.327Z,37.74
2023-03-15T07:20:40.885Z,37.56
2023-03-15T07:23:07.609Z,37.45
2023-03-15T07:25:44.914Z,37.15
2023-03-15T07:28:18.954Z,37.00
2023-03-15T07:30:56.336Z,37.30
2023-03-15T07:33:24.245Z,36.83
2023-03-15T07:35:53.568Z,36.71
2023-03-15T07:38:25.221Z,36.33
2023-03-15T07:40:52.547Z,36.50
2023-03-15T07:43:19.706Z,36.57
2023-03-15T07:45:50.936Z,36.41
2023-03-15T07:48:17.772Z,36.53
2023-03-15T07:50:45.862Z,36.45
2023-03-15T07:53:12.610Z,36.50
2023-03-15T07:55:39.228Z,36.82
2023-03-15T07:58:06.080Z,37.40
2023-03-15T08:00:33.395Z,38.09
2023-03-15T08:03:00.353Z,38.50
2023-03-15T08:05:29.051Z,38.94
2023-03-15T08:07:56.672Z,39.31
2023-03-15T08:10:23.468Z,39.72
2023-03-15T08:12:50.045Z,39.56
2023-03-15T08:15:16.850Z,39.15
2023-03-15T08:17:44.128Z,39.07
2023-03-15T08:20:11.715Z,39.02
2023-03-15T08:22:39.177Z,39.23
2023-03-15T08:25:06.314Z,39.31
2023-03-15T08:27:32.967Z,39.34
2023-03-15T08:29:59.592Z,39.42
2023-03-15T08:32:26.298Z,39.16
2023-03-15T08:34:53.179Z,39.23
2023-03-15T08:37:20.160Z,39.08
2023-03-15T08:39:46.731Z,39.23
2023-03-15T08:42:13.464Z,39.37
2023-03-15T08:44:40.177Z,39.27
2023-03-15T08:47:09.664Z,39.46
2023-03-15T08:49:36.230Z,39.00
2023-03-15T08:52:03.157Z,38.70
2023-03-15T08:54:29.840Z,38.44
2023-03-15T08:56:56.354Z,38.60
2023-03-15T08:59:31.753Z,38.45
2023-03-15T09:02:00.454Z,38.52
2023-03-15T09:04:27.605Z,38.69
2023-03-15T09:06:54.373Z,38.58
2023-03-15T09:09:20.867Z,38.80
2023-03-15T09:11:47.603Z,38.62
2023-03-15T09:14:14.153Z,38.52
2023-03-15T09:16:40.867Z,38.27
2023-03-15T09:19:07.510Z,38.56
2023-03-15T09:21:34.165Z,38.74
2023-03-15T09:24:00.660Z,38.90
2023-03-15T09:26:27.300Z,38.67
2023-03-15T09:28:53.880Z,38.83
2023-03-15T09:31:20.555Z,38.71
2023-03-15T09:33:47.251Z,38.69
2023-03-15T09:36:13.814Z,38.91
2023-03-15T09:38:42.090Z,39.01
2023-03-15T09:41:19.735Z,38.85
2023-03-15T09:43:58.144Z,38.75
2023-03-15T09:46:27.950Z,38.92
2023-03-15T09:49:18.058Z,38.75
2023-03-15T09:52:13.781Z,38.67
2023-03-15T09:55:04.663Z,38.56
2023-03-15T10:00:21.333Z,38.66
2023-03-15T10:02:53.223Z,38.82
2023-03-15T10:05:32.009Z,38.50
2023-03-15T10:07:58.662Z,38.57
2023-03-15T10:10:33.270Z,38.41
2023-03-15T10:13:20.450Z,38.11
2023-03-15T10:16:02.664Z,37.81
2023-03-15T10:18:32.292Z,37.77
2023-03-15T10:21:12.765Z,37.68
2023-03-15T10:23:49.042Z,37.66
2023-03-15T10:26:21.865Z,37.74
2023-03-15T10:28:49.246Z,37.84
2023-03-15T10:31:32.884Z,37.65
2023-03-15T10:34:14.356Z,38.00
2023-03-15T10:36:46.984Z,38.30
2023-03-15T10:39:14.095Z,37.43
2023-03-15T10:41:48.918Z,37.21
2023-03-15T10:44:25.237Z,37.02
2023-03-15T10:47:22.021Z,36.62
2023-03-15T10:49:50.303Z,36.53
2023-03-15T10:52:34.930Z,36.70
2023-03-15T10:55:13.760Z,37.00
2023-03-15T10:57:51.604Z,36.69
2023-03-15T11:00:31.709Z,36.77
2023-03-15T11:03:05.945Z,37.17
2023-03-15T11:05:41.571Z,37.27
2023-03-15T11:08:13.473Z,37.21
2023-03-15T11:10:40.539Z,37.27
2023-03-15T11:13:12.441Z,37.59
2023-03-15T11:15:46.826Z,37.68
2023-03-15T11:18:18.725Z,37.25
2023-03-15T11:20:45.644Z,37.55
2023-03-15T11:23:27.123Z,37.92
2023-03-15T11:25:54.520Z,37.70
2023-03-15T11:28:31.138Z,37.80
2023-03-15T11:31:02.014Z,37.57
2023-03-15T11:33:48.226Z,37.27
2023-03-15T11:36:22.417Z,37.37
2023-03-15T11:38:49.956Z,37.30
2023-03-15T11:41:56.950Z,37.28
2023-03-15T11:44:28.813Z,37.28
2023-03-15T11:46:55.336Z,37.54
2023-03-15T11:49:50.802Z,37.60
2023-03-15T11:52:20.863Z,37.68
2023-03-15T11:54:47.713Z,37.91
2023-03-15T11:57:30.534Z,37.74
2023-03-15T12:00:15.435Z,37.86
2023-03-15T12:02:51.981Z,37.95
2023-03-15T12:05:51.025Z,37.93
2023-03-15T12:08:19.880Z,38.21
2023-03-15T12:10:49.649Z,38.23
2023-03-15T12:13:24.872Z,38.28
2023-03-15T12:15:53.157Z,37.94
2023-03-15T12:18:47.036Z,37.91
2023-03-15T12:21:33.681Z,37.90
2023-03-15T12:24:11.587Z,37.93
2023-03-15T12:26:44.937Z,37.89
2023-03-15T12:29:22.626Z,37.91
2023-03-15T12:31:57.730Z,37.99
2023-03-15T12:34:29.487Z,38.06
2023-03-15T12:37:01.132Z,38.01
2023-03-15T12:39:51.257Z,37.97
2023-03-15T12:42:31.014Z,37.93
2023-03-15T12:45:34.885Z,37.81
2023-03-15T12:50:43.526Z,38.05
2023-03-15T12:53:39.658Z,38.04
2023-03-15T12:56:18.443Z,38.00
2023-03-15T12:58:53.405Z,37.90
2023-03-15T13:01:25.615Z,37.77
2023-03-15T13:03:58.329Z,37.55
2023-03-15T13:06:34.213Z,37.81
2023-03-15T13:09:06.618Z,37.68
2023-03-15T13:11:46.291Z,37.78
2023-03-15T13:14:30.943Z,37.78
2023-03-15T13:17:24.091Z,37.93
2023-03-15T13:20:11.169Z,37.57
2023-03-15T13:22:55.472Z,34.43
2023-03-15T13:28:24.889Z,26.70
2023-03-15T13:30:54.249Z,26.06
2023-03-15T13:33:25.225Z,27.40
2023-03-15T13:36:13.037Z,29.40
2023-03-15T13:38:45.280Z,30.65
2023-03-15T13:41:16.339Z,30.73
2023-03-15T13:43:46.787Z,31.23
2023-03-15T13:46:13.366Z,31.27
2023-03-15T13:48:42.589Z,31.14
2023-03-15T13:51:24.597Z,31.29
2023-03-15T13:53:55.023Z,31.26
2023-03-15T13:58:36.971Z,31.69
2023-03-15T14:01:08.524Z,31.97
2023-03-15T14:03:35.515Z,32.28
2023-03-15T14:06:02.192Z,32.35
2023-03-15T14:08:38.469Z,32.74
2023-03-15T14:11:12.932Z,33.04
2023-03-15T14:13:58.378Z,33.23
2023-03-15T14:17:01.138Z,33.38
2023-03-15T14:19:33.410Z,33.99
2023-03-15T14:22:13.764Z,34.00
2023-03-15T14:24:42.478Z,34.05
2023-03-15T14:27:28.050Z,34.37
2023-03-15T14:30:00.525Z,34.37
2023-03-15T14:32:33.849Z,34.59
2023-03-15T14:35:19.131Z,34.78
2023-03-15T14:37:46.906Z,34.42
2023-03-15T14:40:21.091Z,34.36
2023-03-15T14:42:51.687Z,34.35
2023-03-15T14:45:19.352Z,33.97
2023-03-15T14:47:56.924Z,33.88
2023-03-15T14:50:27.486Z,33.92
2023-03-15T14:52:54.455Z,33.82
2023-03-15T14:55:29.377Z,33.87
2023-03-15T14:57:56.098Z,33.53
2023-03-15T15:00:22.980Z,33.68
2023-03-15T15:02:53.697Z,34.10
2023-03-15T15:05:30.983Z,34.11
2023-03-15T15:08:12.832Z,34.24
2023-03-15T15:10:40.942Z,34.36
2023-03-15T15:13:27.595Z,34.39
2023-03-15T15:15:56.577Z,34.43
2023-03-15T15:18:32.886Z,34.44
2023-03-15T15:21:11.346Z,34.46
2023-03-15T15:23:54.902Z,34.19
2023-03-15T15:26:27.006Z,34.44
2023-03-15T15:28:54.180Z,34.06
2023-03-15T15:31:23.240Z,33.88
2023-03-15T15:33:50.833Z,33.75
2023-03-15T15:36:29.897Z,33.47
2023-03-15T15:38:57.828Z,33.51
2023-03-15T15:41:30.614Z,33.60
2023-03-15T15:43:58.800Z,33.92
2023-03-15T15:46:25.624Z,34.23
2023-03-15T15:48:53.214Z,34.48
2023-03-15T15:51:34.788Z,34.82
2023-03-15T15:54:02.196Z,34.75
2023-03-15T15:56:40.091Z,34.70
2023-03-15T15:59:13.493Z,34.47
2023-03-15T16:01:56.692Z,34.67
2023-03-15T16:04:33.049Z,35.05
2023-03-15T16:07:02.131Z,35.17
2023-03-15T16:09:30.888Z,35.33
2023-03-15T16:11:58.405Z,35.28
2023-03-15T16:14:24.978Z,35.32
2023-03-15T16:16:51.569Z,35.27
2023-03-15T16:19:18.109Z,35.34
2023-03-15T16:21:47.820Z,35.11
2023-03-15T16:24:22.074Z,34.93
2023-03-15T16:26:52.464Z,34.97
2023-03-15T16:29:22.399Z,34.74
2023-03-15T16:31:50.999Z,34.87
2023-03-15T16:34:19.108Z,34.97
2023-03-15T16:36:49.529Z,34.60
2023-03-15T16:39:16.744Z,34.81
2023-03-15T16:41:43.362Z,34.69
2023-03-15T16:44:17.392Z,34.51
2023-03-15T16:46:44.744Z,34.16
2023-03-15T16:49:12.060Z,34.36
2023-03-15T16:54:21.711Z,34.17
2023-03-15T16:56:54.269Z,34.14
2023-03-15T16:59:21.479Z,34.14
2023-03-15T17:01:50.362Z,34.29
2023-03-15T17:04:17.113Z,34.21
2023-03-15T17:06:48.062Z,34.09
2023-03-15T17:09:23.267Z,33.98
2023-03-15T17:11:55.943Z,34.24
2023-03-15T17:14:31.206Z,34.16
2023-03-15T17:16:58.010Z,34.06
2023-03-15T17:19:24.928Z,33.87
2023-03-15T17:21:52.852Z,33.84
2023-03-15T17:24:19.698Z,33.84
2023-03-15T17:26:46.532Z,33.88
2023-03-15T17:29:16.250Z,33.97
2023-03-15T17:31:44.716Z,33.84
2023-03-15T17:34:11.418Z,33.97
2023-03-15T17:36:38.212Z,33.91
2023-03-15T17:39:06.787Z,33.93
2023-03-15T17:41:36.953Z,33.72
2023-03-15T17:44:04.136Z,33.98
2023-03-15T17:46:33.203Z,33.66
2023-03-15T17:49:00.991Z,33.86
2023-03-15T17:51:30.442Z,33.96
2023-03-15T17:53:59.461Z,33.77
2023-03-15T17:56:27.706Z,33.71
2023-03-15T17:58:54.495Z,33.65
2023-03-15T18:01:23.823Z,33.93
2023-03-15T18:03:51.218Z,33.76
2023-03-15T18:06:19.391Z,33.71
2023-03-15T18:08:47.153Z,33.56
2023-03-15T18:11:13.652Z,33.98
2023-03-15T18:13:41.012Z,34.24
2023-03-15T18:16:10.890Z,34.27
2023-03-15T18:18:37.594Z,34.30
2023-03-15T18:21:04.332Z,34.57
2023-03-15T18:23:33.828Z,34.56
2023-03-15T18:26:01.961Z,34.39
2023-03-15T18:28:28.537Z,34.46
2023-03-15T18:30:55.438Z,34.28
2023-03-15T18:33:22.402Z,34.63
2023-03-15T18:35:49.068Z,34.46
2023-03-15T18:38:16.287Z,34.29
2023-03-15T18:40:42.890Z,34.51
2023-03-15T18:43:14.506Z,34.33
2023-03-15T18:45:41.603Z,34.56
2023-03-15T18:48:10.995Z,34.63
2023-03-15T18:50:37.633Z,34.59
2023-03-15T18:53:06.298Z,34.27
2023-03-15T18:55:33.528Z,34.33
2023-03-15T18:58:00.118Z,34.23
2023-03-15T19:00:32.747Z,34.58
2023-03-15T19:03:01.018Z,34.65
2023-03-15T19:05:29.320Z,34.54
2023-03-15T19:07:55.977Z,34.28
2023-03-15T19:10:24.002Z,34.30
2023-03-15T19:12:53.004Z,34.39
2023-03-15T19:15:20.949Z,34.00
2023-03-15T19:17:50.033Z,34.09
2023-03-15T19:20:21.463Z,34.17
2023-03-15T19:22:48.794Z,34.25
2023-03-15T19:25:15.682Z,34.44
2023-03-15T19:27:43.724Z,34.66
2023-03-15T19:30:16.299Z,34.78
2023-03-15T19:32:45.814Z,34.81
2023-03-15T19:35:12.554Z,34.86
2023-03-15T19:37:39.237Z,34.66
2023-03-15T19:40:09.202Z,34.59
2023-03-15T19:42:35.944Z,34.21
2023-03-15T19:45:03.070Z,34.46
2023-03-15T19:47:30.128Z,34.13
2023-03-15T19:49:56.793Z,34.39
2023-03-15T19:52:23.641Z,33.98
2023-03-15T19:54:51.825Z,34.33
2023-03-15T19:57:18.870Z,33.98
2023-03-15T19:59:45.491Z,33.92
2023-03-15T20:02:13.486Z,34.09
2023-03-15T20:04:42.632Z,33.89
2023-03-15T20:07:12.612Z,33.96
2023-03-15T20:09:42.771Z,34.07
2023-03-15T20:12:13.760Z,34.55
2023-03-15T20:14:43.636Z,35.14
2023-03-15T20:17:13.008Z,35.24
2023-03-15T20:19:39.653Z,35.29
2023-03-15T20:22:06.286Z,35.12
2023-03-15T20:24:35.076Z,35.39
2023-03-15T20:27:01.796Z,35.32
2023-03-15T20:29:31.650Z,35.43
2023-03-15T20:31:58.191Z,35.10
2023-03-15T20:34:27.488Z,35.29
2023-03-15T20:36:56.477Z,35.17
2023-03-15T20:39:24.279Z,35.25
2023-03-15T20:41:51.290Z,35.06
2023-03-15T20:44:19.627Z,34.90
2023-03-15T20:46:46.342Z,35.01
2023-03-15T20:49:17.495Z,34.71
2023-03-15T20:51:45.170Z,34.64
2023-03-15T20:54:11.928Z,34.46
2023-03-15T20:56:39.062Z,34.63
2023-03-15T20:59:08.557Z,34.42
2023-03-15T21:01:38.578Z,34.19
2023-03-15T21:04:05.322Z,34.31
2023-03-15T21:06:32.396Z,34.22
2023-03-15T21:09:02.742Z,34.24
2023-03-15T21:11:38.275Z,34.25
2023-03-15T21:14:04.993Z,34.27
2023-03-15T21:16:33.271Z,33.92
2023-03-15T21:19:01.630Z,33.78
2023-03-15T21:21:28.250Z,33.92
2023-03-15T21:23:55.002Z,34.01
2023-03-15T21:26:22.368Z,33.78
2023-03-15T21:28:49.015Z,33.54
2023-03-15T21:31:15.659Z,33.69
2023-03-15T21:33:42.670Z,33.33
2023-03-15T21:36:09.357Z,33.56
2023-03-15T21:38:36.315Z,33.17
2023-03-15T21:41:09.084Z,33.00
2023-03-15T21:43:36.798Z,33.20
2023-03-15T21:46:08.796Z,33.07
2023-03-15T21:48:37.207Z,33.05
2023-03-15T21:51:04.963Z,32.99
2023-03-15T21:53:34.005Z,32.90
2023-03-15T21:56:01.932Z,33.16
2023-03-15T21:58:29.316Z,33.26
2023-03-15T22:01:06.165Z,33.15
2023-03-15T22:03:34.161Z,33.26
2023-03-15T22:06:01.663Z,33.34
2023-03-15T22:08:28.895Z,33.72
2023-03-15T22:10:58.823Z,33.92
2023-03-15T22:13:26.240Z,33.80
2023-03-15T22:15:56.010Z,33.51
2023-03-15T22:18:22.927Z,33.30
2023-03-15T22:20:51.197Z,33.25
2023-03-15T22:23:18.465Z,33.01
2023-03-15T22:25:45.179Z,33.06
2023-03-15T22:28:12.264Z,32.83
2023-03-15T22:30:38.977Z,33.03
2023-03-15T22:33:05.711Z,32.91
2023-03-15T22:35:32.399Z,32.54
2023-03-15T22:37:59.051Z,32.60
2023-03-15T22:40:28.122Z,32.88
2023-03-15T22:42:57.192Z,32.81
2023-03-15T22:45:25.902Z,32.68
2023-03-15T22:47:52.939Z,32.77
2023-03-15T22:50:21.151Z,32.65
2023-03-15T22:52:48.650Z,32.51
2023-03-15T22:55:15.305Z,32.25
2023-03-15T22:57:41.955Z,32.34
2023-03-15T23:00:13.649Z,32.30
2023-03-15T23:02:41.830Z,32.62
2023-03-15T23:05:11.401Z,32.48
2023-03-15T23:07:38.248Z,32.28
2023-03-15T23:10:06.193Z,32.21
2023-03-15T23:12:36.295Z,32.39
2023-03-15T23:15:04.638Z,32.33
2023-03-15T23:17:31.708Z,32.51
2023-03-15T23:19:58.334Z,32.44
2023-03-15T23:22:25.159Z,32.05
2023-03-15T23:24:51.787Z,32.29
2023-03-15T23:27:18.515Z,32.52
2023-03-15T23:29:54.152Z,32.28
2023-03-15T23:32:22.899Z,32.35
2023-03-15T23:34:51.064Z,32.11
2023-03-15T23:37:17.763Z,32.10
2023-03-15T23:39:44.499Z,32.19
2023-03-15T23:42:12.018Z,32.40
2023-03-15T23:44:38.643Z,32.34
2023-03-15T23:47:06.417Z,32.14
2023-03-15T23:49:34.085Z,31.96
2023-03-15T23:52:05.801Z,32.21
2023-03-15T23:54:39.955Z,32.16
2023-03-15T23:57:12.426Z,32.22
2023-03-15T23:59:39.700Z,32.00
